createdAt,value
2019-02-02T00:01:10.580Z,22.07
2019-02-02T00:03:37.124Z,22.83
2019-02-02T00:06:04.497Z,23.67
2019-02-02T00:08:30.967Z,21.20
2019-02-02T00:10:57.516Z,22.97
2019-02-02T00:13:24.250Z,21.30
2019-02-02T00:15:51.077Z,24.77
2019-02-02T00:18:17.551Z,23.90
2019-02-02T00:20:44.075Z,22.47
2019-02-02T00:23:10.852Z,22.10
2019-02-02T00:25:38.058Z,23.90
2019-02-02T00:28:04.731Z,22.43
2019-02-02T00:30:31.670Z,21.13
2019-02-02T00:32:58.226Z,20.80
2019-02-02T00:35:24.720Z,21.53
2019-02-02T00:37:51.451Z,23.63
2019-02-02T00:40:18.250Z,22.70
2019-02-02T00:42:44.806Z,22.30
2019-02-02T00:45:11.968Z,24.93
2019-02-02T00:47:38.387Z,24.93
2019-02-02T00:50:05.248Z,24.80
2019-02-02T00:52:31.739Z,21.00
2019-02-02T00:54:58.541Z,22.00
2019-02-02T00:57:25.009Z,23.47
2019-02-02T00:59:52.089Z,22.60
2019-02-02T01:02:18.640Z,24.00
2019-02-02T01:04:45.528Z,21.50
2019-02-02T01:07:12.370Z,23.30
2019-02-02T01:09:39.757Z,24.23
2019-02-02T01:12:06.620Z,22.20
2019-02-02T01:14:33.177Z,23.43
2019-02-02T01:16:59.638Z,23.00
2019-02-02T01:19:26.305Z,23.40
2019-02-02T01:21:52.897Z,23.77
2019-02-02T01:24:19.619Z,24.33
2019-02-02T01:26:46.116Z,24.40
2019-02-02T01:29:12.924Z,24.60
2019-02-02T01:31:39.511Z,23.70
2019-02-02T01:34:06.354Z,25.03
2019-02-02T01:36:32.869Z,24.00
2019-02-02T01:38:59.400Z,22.47
2019-02-02T01:41:25.864Z,23.40
2019-02-02T01:43:52.320Z,23.90
2019-02-02T01:46:19.013Z,24.57
2019-02-02T01:48:45.480Z,25.87
2019-02-02T01:51:12.212Z,25.60
2019-02-02T01:53:38.727Z,24.50
2019-02-02T01:56:05.356Z,25.17
2019-02-02T01:58:34.217Z,25.47
2019-02-02T02:01:00.884Z,25.50
2019-02-02T02:03:27.499Z,27.07
2019-02-02T02:05:54.029Z,26.87
2019-02-02T02:08:20.518Z,26.90
2019-02-02T02:10:47.049Z,23.53
2019-02-02T02:13:13.573Z,25.50
2019-02-02T02:15:40.101Z,25.07
2019-02-02T02:18:06.754Z,25.87
2019-02-02T02:20:33.198Z,26.80
2019-02-02T02:23:00.352Z,25.87
2019-02-02T02:25:26.844Z,27.03
2019-02-02T02:27:53.316Z,24.83
2019-02-02T02:30:21.276Z,26.73
2019-02-02T02:32:47.905Z,26.70
2019-02-02T02:35:14.664Z,26.40
2019-02-02T02:37:41.419Z,27.60
2019-02-02T02:40:09.467Z,28.20
2019-02-02T02:42:36.056Z,27.13
2019-02-02T02:45:03.993Z,25.87
2019-02-02T02:47:30.606Z,27.37
2019-02-02T02:49:58.165Z,29.40
2019-02-02T02:52:24.665Z,28.13
2019-02-02T02:54:51.161Z,29.60
2019-02-02T02:57:17.671Z,28.83
2019-02-02T02:59:44.188Z,29.70
2019-02-02T03:02:10.694Z,30.03
2019-02-02T03:04:37.238Z,28.87
2019-02-02T03:07:04.123Z,30.70
2019-02-02T03:09:30.648Z,30.33
2019-02-02T03:11:57.320Z,30.07
2019-02-02T03:14:23.815Z,33.00
2019-02-02T03:16:51.065Z,32.20
2019-02-02T03:19:17.582Z,31.27
2019-02-02T03:21:44.240Z,29.97
2019-02-02T03:24:10.691Z,31.33
2019-02-02T03:26:37.208Z,30.27
2019-02-02T03:29:03.689Z,32.03
2019-02-02T03:31:30.217Z,29.70
2019-02-02T03:33:57.030Z,30.53
2019-02-02T03:36:24.043Z,31.93
2019-02-02T03:38:51.000Z,31.70
2019-02-02T03:41:17.461Z,31.97
2019-02-02T03:43:44.553Z,31.80
2019-02-02T03:46:11.356Z,33.27
2019-02-02T03:48:37.889Z,33.40
2019-02-02T03:51:08.022Z,32.17
2019-02-02T03:53:34.658Z,32.57
2019-02-02T03:56:01.115Z,32.87
2019-02-02T03:58:27.630Z,35.40
2019-02-02T04:00:54.078Z,33.53
2019-02-02T04:03:20.685Z,35.90
2019-02-02T04:05:47.146Z,32.67
2019-02-02T04:08:13.958Z,34.87
2019-02-02T04:10:48.576Z,33.67
2019-02-02T04:13:15.400Z,32.50
2019-02-02T04:15:42.272Z,32.37
2019-02-02T04:18:08.847Z,32.97
2019-02-02T04:20:35.341Z,31.43
2019-02-02T04:23:02.215Z,32.80
2019-02-02T04:25:28.675Z,32.73
2019-02-02T04:27:55.279Z,30.43
2019-02-02T04:30:23.423Z,32.87
2019-02-02T04:32:50.557Z,32.97
2019-02-02T04:35:17.423Z,32.00
2019-02-02T04:37:44.141Z,30.47
2019-02-02T04:40:11.356Z,30.80
2019-02-02T04:42:37.830Z,34.60
2019-02-02T04:45:05.328Z,35.27
2019-02-02T04:47:31.813Z,32.63
2019-02-02T04:49:58.415Z,32.90
2019-02-02T04:52:25.118Z,32.37
2019-02-02T04:54:52.202Z,31.13
2019-02-02T04:57:18.753Z,31.97
2019-02-02T04:59:45.232Z,31.70
2019-02-02T05:02:11.964Z,31.00
2019-02-02T05:04:38.468Z,35.77
2019-02-02T05:07:05.171Z,33.57
2019-02-02T05:09:31.760Z,33.47
2019-02-02T05:11:58.372Z,33.67
2019-02-02T05:14:24.914Z,34.43
2019-02-02T05:16:51.383Z,35.70
2019-02-02T05:19:17.859Z,34.00
2019-02-02T05:21:44.751Z,38.73
2019-02-02T05:24:11.427Z,35.67
2019-02-02T05:26:37.962Z,33.07
2019-02-02T05:29:04.694Z,31.57
2019-02-02T05:31:31.200Z,35.10
2019-02-02T05:33:57.853Z,33.67
2019-02-02T05:36:24.496Z,34.63
2019-02-02T05:38:51.440Z,36.40
2019-02-02T05:41:18.000Z,37.10
2019-02-02T05:43:44.540Z,34.43
2019-02-02T05:46:11.046Z,38.60
2019-02-02T05:48:37.526Z,38.00
2019-02-02T05:51:04.019Z,40.00
2019-02-02T05:53:30.527Z,40.17
2019-02-02T05:55:57.000Z,40.23
2019-02-02T05:58:23.605Z,41.47
2019-02-02T06:00:52.407Z,45.07
2019-02-02T06:03:19.101Z,38.73
2019-02-02T06:05:45.560Z,41.57
2019-02-02T06:08:12.305Z,40.40
2019-02-02T06:10:38.926Z,42.63
2019-02-02T06:13:05.594Z,40.67
2019-02-02T06:15:32.147Z,42.40
2019-02-02T06:17:59.673Z,42.07
2019-02-02T06:20:26.199Z,42.87
2019-02-02T06:22:53.083Z,39.93
2019-02-02T06:25:19.767Z,44.27
2019-02-02T06:27:46.367Z,41.00
2019-02-02T06:30:14.699Z,41.47
2019-02-02T06:32:41.212Z,40.63
2019-02-02T06:35:09.288Z,40.90
2019-02-02T06:37:35.942Z,39.07
2019-02-02T06:40:03.331Z,39.70
2019-02-02T06:42:29.892Z,41.50
2019-02-02T06:44:56.391Z,47.27
2019-02-02T06:47:22.857Z,40.77
2019-02-02T06:49:49.628Z,41.70
2019-02-02T06:52:16.183Z,41.80
2019-02-02T06:54:42.719Z,39.67
2019-02-02T06:57:09.196Z,41.83
2019-02-02T06:59:35.671Z,43.07
2019-02-02T07:02:02.606Z,43.93
2019-02-02T07:04:29.056Z,43.83
2019-02-02T07:06:55.552Z,41.43
2019-02-02T07:09:22.276Z,42.63
2019-02-02T07:11:48.775Z,44.67
2019-02-02T07:14:15.237Z,43.33
2019-02-02T07:16:46.511Z,50.40
2019-02-02T07:19:13.174Z,44.13
2019-02-02T07:21:41.787Z,46.53
2019-02-02T07:24:08.430Z,54.90
2019-02-02T07:26:34.892Z,43.23
2019-02-02T07:29:01.523Z,52.10
2019-02-02T07:31:28.373Z,46.17
2019-02-02T07:33:54.842Z,50.07
2019-02-02T07:36:21.370Z,48.93
2019-02-02T07:38:47.897Z,47.17
2019-02-02T07:41:14.690Z,46.33
2019-02-02T07:43:41.174Z,49.83
2019-02-02T07:46:14.824Z,53.53
2019-02-02T07:48:36.902Z,52.50
2019-02-02T07:51:03.584Z,46.20
2019-02-02T07:53:30.026Z,44.53
2019-02-02T07:55:56.568Z,46.20
2019-02-02T07:58:23.140Z,45.27
2019-02-02T08:00:49.898Z,43.90
2019-02-02T08:03:16.525Z,44.03
2019-02-02T08:05:43.025Z,45.00
2019-02-02T08:08:11.601Z,45.40
2019-02-02T08:10:38.128Z,43.53
2019-02-02T08:13:05.617Z,42.97
2019-02-02T08:15:32.542Z,40.63
2019-02-02T08:17:59.156Z,45.47
2019-02-02T08:20:25.835Z,43.70
2019-02-02T08:22:52.553Z,45.47
2019-02-02T08:25:19.281Z,44.93
2019-02-02T08:27:45.801Z,43.27
2019-02-02T08:30:16.667Z,41.10
2019-02-02T08:32:47.594Z,47.47
2019-02-02T08:35:14.929Z,45.97
2019-02-02T08:37:41.675Z,40.70
2019-02-02T08:40:10.068Z,44.07
2019-02-02T08:42:36.597Z,44.57
2019-02-02T08:45:04.086Z,41.57
2019-02-02T08:47:32.707Z,46.00
2019-02-02T08:49:59.332Z,46.03
2019-02-02T08:52:26.551Z,44.83
2019-02-02T08:54:53.199Z,43.40
2019-02-02T08:57:20.435Z,44.00
2019-02-02T08:59:48.392Z,43.63
2019-02-02T09:02:15.339Z,40.50
2019-02-02T09:04:42.160Z,41.83
2019-02-02T09:07:08.659Z,44.57
2019-02-02T09:09:35.161Z,43.00
2019-02-02T09:12:01.628Z,45.77
2019-02-02T09:14:28.195Z,44.03
2019-02-02T09:16:54.960Z,43.90
2019-02-02T09:19:21.481Z,44.50
2019-02-02T09:21:48.479Z,42.67
2019-02-02T09:24:15.509Z,44.43
2019-02-02T09:26:42.281Z,40.97
2019-02-02T09:29:10.509Z,44.83
2019-02-02T09:31:37.323Z,40.87
2019-02-02T09:34:03.881Z,44.43
2019-02-02T09:36:30.545Z,42.43
2019-02-02T09:38:57.102Z,42.13
2019-02-02T09:41:28.821Z,42.50
2019-02-02T09:43:55.838Z,44.20
2019-02-02T09:46:23.031Z,42.80
2019-02-02T09:48:49.550Z,42.67
2019-02-02T09:51:16.244Z,44.77
2019-02-02T09:53:42.956Z,43.03
2019-02-02T09:56:09.467Z,43.10
2019-02-02T09:58:36.399Z,42.10
2019-02-02T10:01:04.063Z,43.47
2019-02-02T10:03:30.969Z,41.27
2019-02-02T10:05:57.567Z,41.27
2019-02-02T10:08:24.553Z,42.43
2019-02-02T10:10:51.351Z,42.97
2019-02-02T10:13:24.325Z,41.90
2019-02-02T10:15:51.528Z,42.33
2019-02-02T10:18:18.032Z,43.67
2019-02-02T10:20:46.538Z,41.93
2019-02-02T10:23:18.108Z,44.23
2019-02-02T10:25:48.557Z,43.03
2019-02-02T10:28:15.090Z,42.10
2019-02-02T10:30:42.645Z,43.73
2019-02-02T10:33:10.078Z,41.83
2019-02-02T10:35:45.160Z,40.17
2019-02-02T10:38:24.440Z,41.53
2019-02-02T10:40:58.640Z,42.83
2019-02-02T10:43:25.414Z,43.97
2019-02-02T10:45:51.981Z,44.87
2019-02-02T10:48:24.671Z,43.20
2019-02-02T10:50:54.120Z,42.60
2019-02-02T10:53:20.919Z,54.73
2019-02-02T10:55:47.519Z,50.60
2019-02-02T10:58:18.313Z,46.67
2019-02-02T11:00:46.692Z,44.87
2019-02-02T11:03:21.055Z,43.83
2019-02-02T11:05:58.614Z,56.77
2019-02-02T11:08:25.390Z,54.67
2019-02-02T11:10:51.859Z,44.87
2019-02-02T11:13:18.653Z,43.97
2019-02-02T11:15:45.522Z,45.53
2019-02-02T11:18:12.362Z,44.53
2019-02-02T11:20:39.005Z,48.97
2019-02-02T11:23:05.605Z,49.70
2019-02-02T11:25:32.566Z,45.47
2019-02-02T11:27:59.434Z,48.53
2019-02-02T11:30:27.953Z,45.73
2019-02-02T11:32:54.609Z,43.97
2019-02-02T11:35:21.368Z,45.83
2019-02-02T11:37:50.820Z,47.33
2019-02-02T11:40:38.244Z,46.83
2019-02-02T11:43:07.475Z,42.63
2019-02-02T11:45:34.370Z,48.70
2019-02-02T11:48:01.144Z,44.33
2019-02-02T11:50:30.388Z,47.37
2019-02-02T11:52:57.306Z,47.10
2019-02-02T11:55:23.860Z,46.83
2019-02-02T11:57:50.853Z,46.53
2019-02-02T12:00:25.476Z,46.50
2019-02-02T12:02:52.061Z,46.83
2019-02-02T12:05:19.407Z,45.47
2019-02-02T12:07:46.034Z,47.13
2019-02-02T12:10:14.430Z,47.03
2019-02-02T12:12:42.224Z,47.93
2019-02-02T12:15:10.645Z,48.13
2019-02-02T12:17:40.253Z,49.93
2019-02-02T12:20:08.789Z,48.90
2019-02-02T12:22:37.599Z,48.70
2019-02-02T12:25:04.626Z,47.43
2019-02-02T12:27:31.484Z,47.53
2019-02-02T12:29:58.203Z,50.73
2019-02-02T12:32:26.963Z,49.10
2019-02-02T12:34:53.792Z,46.83
2019-02-02T12:37:20.461Z,54.47
2019-02-02T12:39:46.937Z,50.87
2019-02-02T12:42:13.762Z,47.63
2019-02-02T12:44:40.326Z,46.30
2019-02-02T12:47:06.810Z,47.83
2019-02-02T12:49:33.291Z,47.60
2019-02-02T12:51:59.847Z,100.30
2019-02-02T12:54:26.371Z,47.47
2019-02-02T12:56:52.842Z,51.40
2019-02-02T12:59:19.591Z,46.93
2019-02-02T13:01:46.105Z,48.63
2019-02-02T13:04:12.667Z,46.53
2019-02-02T13:06:39.417Z,45.23
2019-02-02T13:09:07.646Z,45.77
2019-02-02T13:11:34.244Z,44.40
2019-02-02T13:14:00.741Z,46.27
2019-02-02T13:16:27.365Z,45.50
2019-02-02T13:18:53.997Z,46.00
2019-02-02T13:21:21.601Z,45.47
2019-02-02T13:23:48.237Z,46.90
2019-02-02T13:26:14.792Z,46.77
2019-02-02T13:28:41.365Z,46.00
2019-02-02T13:31:07.893Z,47.20
2019-02-02T13:33:34.409Z,48.33
2019-02-02T13:36:00.933Z,47.17
2019-02-02T13:38:27.458Z,45.50
2019-02-02T13:40:54.163Z,44.87
2019-02-02T13:43:20.770Z,44.30
2019-02-02T13:45:47.356Z,47.70
2019-02-02T13:48:13.912Z,72.90
2019-02-02T13:50:40.517Z,53.33
2019-02-02T13:53:08.015Z,44.57
2019-02-02T13:55:34.679Z,45.73
2019-02-02T13:58:02.522Z,44.77
2019-02-02T14:00:30.249Z,41.67
2019-02-02T14:03:02.716Z,42.70
2019-02-02T14:05:26.793Z,41.70
2019-02-02T14:07:54.207Z,42.73
2019-02-02T14:10:22.712Z,43.37
2019-02-02T14:12:50.020Z,41.57
2019-02-02T14:15:16.924Z,43.90
2019-02-02T14:17:44.265Z,41.77
2019-02-02T14:20:11.313Z,42.13
2019-02-02T14:22:37.973Z,42.53
2019-02-02T14:25:05.837Z,41.13
2019-02-02T14:27:32.375Z,46.30
2019-02-02T14:29:59.372Z,42.27
2019-02-02T14:32:25.944Z,42.00
2019-02-02T14:34:52.625Z,43.73
2019-02-02T14:37:19.599Z,44.33
2019-02-02T14:39:49.033Z,41.97
2019-02-02T14:42:18.236Z,41.27
2019-02-02T14:44:43.885Z,45.00
2019-02-02T14:47:11.849Z,42.77
2019-02-02T14:49:38.539Z,42.47
2019-02-02T14:52:05.776Z,43.03
2019-02-02T14:54:32.391Z,43.37
2019-02-02T14:56:58.891Z,43.20
2019-02-02T14:59:27.822Z,44.10
2019-02-02T15:01:54.319Z,45.27
2019-02-02T15:04:21.624Z,42.93
2019-02-02T15:06:48.392Z,43.23
2019-02-02T15:09:15.083Z,42.63
2019-02-02T15:11:41.868Z,44.37
2019-02-02T15:14:08.596Z,43.97
2019-02-02T15:16:35.971Z,45.80
2019-02-02T15:19:03.818Z,46.60
2019-02-02T15:21:30.359Z,46.27
2019-02-02T15:23:58.065Z,43.40
2019-02-02T15:26:24.817Z,46.57
2019-02-02T15:28:51.634Z,48.73
2019-02-02T15:31:18.696Z,43.13
2019-02-02T15:33:45.441Z,47.73
2019-02-02T15:36:16.518Z,50.37
2019-02-02T15:38:43.183Z,45.07
2019-02-02T15:41:10.905Z,47.20
2019-02-02T15:43:37.701Z,44.93
2019-02-02T15:46:04.693Z,47.73
2019-02-02T15:48:42.551Z,47.13
2019-02-02T15:51:08.722Z,47.83
2019-02-02T15:53:35.563Z,45.47
2019-02-02T15:56:02.278Z,42.93
2019-02-02T15:58:29.050Z,43.50
2019-02-02T16:00:56.889Z,46.07
2019-02-02T16:03:23.613Z,43.13
2019-02-02T16:05:50.405Z,45.60
2019-02-02T16:08:19.225Z,44.03
2019-02-02T16:10:46.571Z,44.63
2019-02-02T16:13:13.547Z,45.00
2019-02-02T16:15:40.645Z,44.27
2019-02-02T16:18:08.215Z,43.50
2019-02-02T16:20:37.151Z,44.03
2019-02-02T16:23:04.342Z,42.60
2019-02-02T16:25:32.114Z,43.07
2019-02-02T16:27:59.070Z,45.30
2019-02-02T16:30:26.302Z,42.67
2019-02-02T16:32:53.837Z,43.33
2019-02-02T16:35:21.016Z,44.00
2019-02-02T16:37:47.643Z,46.10
2019-02-02T16:40:18.577Z,45.43
2019-02-02T16:42:45.161Z,44.07
2019-02-02T16:45:14.018Z,46.80
2019-02-02T16:47:41.429Z,46.37
2019-02-02T16:50:11.231Z,44.93
2019-02-02T16:52:37.709Z,43.97
2019-02-02T16:55:05.099Z,47.30
2019-02-02T16:57:31.626Z,43.63
2019-02-02T16:59:58.564Z,46.93
2019-02-02T17:02:25.419Z,46.77
2019-02-02T17:04:51.925Z,45.83
2019-02-02T17:07:18.616Z,48.30
2019-02-02T17:09:46.320Z,46.00
2019-02-02T17:12:13.136Z,44.00
2019-02-02T17:14:39.823Z,43.77
2019-02-02T17:17:06.644Z,47.43
2019-02-02T17:19:33.136Z,44.73
2019-02-02T17:21:59.594Z,46.90
2019-02-02T17:24:26.086Z,43.43
2019-02-02T17:26:52.602Z,43.67
2019-02-02T17:29:19.052Z,44.70
2019-02-02T17:31:45.528Z,44.17
2019-02-02T17:34:11.991Z,44.30
2019-02-02T17:36:38.540Z,47.20
2019-02-02T17:39:05.399Z,48.43
2019-02-02T17:41:31.877Z,47.20
2019-02-02T17:43:58.437Z,48.17
2019-02-02T17:46:24.937Z,45.53
2019-02-02T17:48:51.549Z,42.73
2019-02-02T17:51:18.179Z,46.93
2019-02-02T17:53:46.089Z,45.63
2019-02-02T17:56:12.599Z,46.17
2019-02-02T17:58:40.080Z,43.97
2019-02-02T18:01:06.770Z,46.90
2019-02-02T18:03:34.504Z,47.53
2019-02-02T18:06:01.766Z,43.70
2019-02-02T18:08:30.136Z,46.47
2019-02-02T18:10:57.048Z,46.37
2019-02-02T18:13:23.604Z,49.90
2019-02-02T18:15:51.306Z,46.13
2019-02-02T18:18:18.202Z,45.27
2019-02-02T18:20:44.751Z,44.97
2019-02-02T18:23:11.224Z,45.77
2019-02-02T18:25:37.924Z,47.47
2019-02-02T18:28:05.228Z,49.23
2019-02-02T18:30:32.076Z,46.33
2019-02-02T18:32:59.252Z,45.17
2019-02-02T18:35:26.093Z,44.90
2019-02-02T18:37:52.900Z,43.60
2019-02-02T18:40:19.599Z,47.13
2019-02-02T18:42:46.361Z,43.20
2019-02-02T18:45:15.862Z,45.33
2019-02-02T18:47:42.451Z,42.40
2019-02-02T18:50:11.110Z,43.97
2019-02-02T18:52:38.841Z,46.67
2019-02-02T18:55:08.454Z,43.47
2019-02-02T18:57:35.288Z,40.80
2019-02-02T19:00:01.795Z,40.27
2019-02-02T19:02:30.351Z,38.97
2019-02-02T19:05:03.807Z,39.93
2019-02-02T19:07:25.568Z,41.27
2019-02-02T19:09:52.125Z,39.63
2019-02-02T19:12:18.729Z,39.87
2019-02-02T19:14:45.626Z,39.53
2019-02-02T19:17:12.693Z,38.27
2019-02-02T19:19:39.327Z,35.87
2019-02-02T19:22:06.195Z,36.97
2019-02-02T19:24:32.737Z,37.13
2019-02-02T19:26:59.229Z,37.07
2019-02-02T19:29:26.262Z,35.83
2019-02-02T19:31:52.767Z,36.70
2019-02-02T19:34:19.464Z,36.10
2019-02-02T19:36:47.220Z,36.73
2019-02-02T19:39:13.818Z,38.23
2019-02-02T19:41:41.441Z,36.23
2019-02-02T19:44:08.314Z,38.37
2019-02-02T19:46:34.871Z,40.33
2019-02-02T19:49:01.500Z,39.10
2019-02-02T19:51:28.139Z,37.47
2019-02-02T19:53:54.658Z,35.03
2019-02-02T19:56:22.197Z,38.27
2019-02-02T19:58:49.166Z,37.13
2019-02-02T20:01:17.740Z,35.87
2019-02-02T20:03:44.287Z,36.07
2019-02-02T20:06:11.069Z,35.73
2019-02-02T20:08:39.816Z,33.83
2019-02-02T20:11:06.516Z,33.67
2019-02-02T20:13:33.406Z,36.10
2019-02-02T20:16:00.057Z,34.27
2019-02-02T20:18:26.702Z,34.50
2019-02-02T20:20:53.268Z,34.40
2019-02-02T20:23:19.889Z,35.33
2019-02-02T20:25:46.389Z,36.30
2019-02-02T20:28:14.269Z,34.20
2019-02-02T20:30:41.559Z,35.97
2019-02-02T20:33:08.801Z,30.77
2019-02-02T20:35:42.142Z,36.70
2019-02-02T20:38:04.591Z,37.50
2019-02-02T20:40:31.754Z,37.37
2019-02-02T20:42:58.805Z,40.37
2019-02-02T20:45:28.319Z,40.83
2019-02-02T20:47:54.955Z,38.23
2019-02-02T20:50:21.760Z,41.90
2019-02-02T20:52:48.456Z,43.57
2019-02-02T20:55:18.345Z,41.27
2019-02-02T20:57:45.970Z,42.07
2019-02-02T21:00:15.516Z,41.67
2019-02-02T21:02:42.262Z,41.67
2019-02-02T21:05:08.956Z,42.50
2019-02-02T21:07:35.769Z,44.30
2019-02-02T21:10:03.731Z,45.47
2019-02-02T21:12:30.859Z,47.40
2019-02-02T21:14:58.099Z,45.57
2019-02-02T21:17:24.873Z,48.23
2019-02-02T21:19:51.751Z,42.30
2019-02-02T21:22:18.350Z,43.00
2019-02-02T21:24:45.278Z,42.67
2019-02-02T21:27:12.002Z,44.60
2019-02-02T21:29:39.402Z,43.13
2019-02-02T21:32:06.001Z,44.60
2019-02-02T21:34:33.114Z,45.77
2019-02-02T21:36:59.835Z,44.77
2019-02-02T21:39:26.405Z,45.57
2019-02-02T21:41:53.863Z,45.40
2019-02-02T21:44:20.783Z,43.90
2019-02-02T21:46:47.930Z,47.80
2019-02-02T21:49:14.838Z,46.33
2019-02-02T21:51:46.601Z,45.90
2019-02-02T21:54:13.287Z,44.83
2019-02-02T21:56:40.104Z,49.70
2019-02-02T21:59:07.809Z,46.03
2019-02-02T22:01:34.707Z,46.07
2019-02-02T22:04:01.970Z,48.37
2019-02-02T22:06:28.553Z,49.00
2019-02-02T22:08:55.885Z,49.93
2019-02-02T22:11:22.766Z,48.17
2019-02-02T22:13:49.366Z,46.37
2019-02-02T22:16:16.018Z,47.30
2019-02-02T22:18:42.825Z,43.87
2019-02-02T22:21:09.802Z,43.20
2019-02-02T22:23:36.259Z,41.83
2019-02-02T22:26:03.065Z,40.60
2019-02-02T22:28:29.591Z,44.43
2019-02-02T22:30:56.066Z,44.97
2019-02-02T22:33:22.990Z,45.57
2019-02-02T22:35:49.588Z,44.43
2019-02-02T22:38:16.253Z,45.33
2019-02-02T22:40:42.772Z,45.70
2019-02-02T22:43:12.180Z,44.30
2019-02-02T22:45:38.732Z,46.53
2019-02-02T22:48:05.866Z,46.10
2019-02-02T22:50:33.380Z,45.37
2019-02-02T22:52:59.889Z,43.67
2019-02-02T22:55:26.344Z,42.23
2019-02-02T22:57:53.354Z,43.63
2019-02-02T23:00:56.465Z,45.50
2019-02-02T23:03:35.044Z,44.87
2019-02-02T23:06:39.552Z,45.40
2019-02-02T23:10:02.513Z,44.27
2019-02-02T23:12:54.495Z,43.17
2019-02-02T23:15:34.811Z,43.47
2019-02-02T23:18:01.453Z,41.77
2019-02-02T23:20:28.275Z,46.17
2019-02-02T23:22:55.062Z,44.23
2019-02-02T23:25:22.097Z,46.70
2019-02-02T23:27:48.555Z,46.80
2019-02-02T23:30:16.020Z,45.90
2019-02-02T23:32:43.015Z,46.97
2019-02-02T23:35:09.575Z,44.87
2019-02-02T23:37:36.285Z,46.77
2019-02-02T23:40:03.916Z,45.47
2019-02-02T23:42:30.602Z,45.83
2019-02-02T23:44:57.097Z,46.83
2019-02-02T23:47:23.794Z,45.10
2019-02-02T23:49:50.249Z,46.20
2019-02-02T23:52:17.017Z,42.97
2019-02-02T23:54:44.601Z,45.50
2019-02-02T23:57:11.107Z,46.87
2019-02-02T23:59:37.985Z,45.83
